Rossie, Iowa
Current Conditions -  °F | °C
As of 12:53 PM on Saturday 25 Oct 2014 (Local Time) from KSPW Reporting Station
Clear Clear  
Wind Chill: 65°   Ceiling: Unl
Heat Index: 65°   Visibility: 10mi
Dew Point: 34°   Wind: 15mph
Humidity: 32%   Direction: 10°N
Pressure: 30.13"   Gusts: NA
Location:  43.0463°N, 95.2692°W
Report Text: KSPW 251753Z AUTO 01013KT 10SM CLR 18/01 A3013 RMK AO2 SLP205 T01830011 10183 20044 58000 TSNO
Loading
Personal Weather Stations






























Interactive Weather Map
Tropical Storm Tracking
New forecast layout! Learn more

10-Day Weather Forecast

Advertisements
Track Severe Weather on mobile